Time;durP1;ratioP1;P1;durP2;ratioP2;P2;SDS_P1;SDS_P2;PMS_P1;PMS_P2;Temp;Humidity;BMP_temperature;BMP_pressure;BME280_temperature;BME280_humidity;BME280_pressure;Samples;Min_cycle;Max_cycle;Signal;HPM_P1;HPM_P2
2022/05/30 00:02:14;;;;;;;3.58;2.63;;;;;;;11.58;64.02;98471.38;5085733;28;20098;-72
2022/05/30 00:04:41;;;;;;;4.38;2.83;;;;;;;12.33;63.60;98561.47;5085664;28;20052;-72
2022/05/30 00:07:08;;;;;;;6.55;3.90;;;;;;;12.38;62.99;98565.47;5084792;28;20230;-72
2022/05/30 00:09:37;;;;;;;6.80;4.40;;;;;;;12.44;62.69;98569.47;5085088;28;20056;-72
2022/05/30 00:12:05;;;;;;;6.85;4.82;;;;;;;11.88;62.40;98473.56;5085632;28;20060;-72
2022/05/30 00:14:33;;;;;;;5.20;2.90;;;;;;;12.48;62.47;98568.28;5085706;28;20067;-71
2022/05/30 00:17:01;;;;;;;6.75;3.58;;;;;;;12.54;62.03;98564.31;5085261;28;20109;-72
2022/05/30 00:19:28;;;;;;;2.97;2.20;;;;;;;12.52;62.25;98565.28;5085363;28;20056;-72
2022/05/30 00:21:56;;;;;;;4.88;2.58;;;;;;;11.43;62.33;98383.13;5084539;28;20052;-72
2022/05/30 00:24:23;;;;;;;5.35;2.72;;;;;;;12.49;62.25;98568.19;5085387;28;20049;-72
2022/05/30 00:26:52;;;;;;;3.97;2.78;;;;;;;12.48;62.52;98565.63;5085427;28;20320;-71
2022/05/30 00:29:19;;;;;;;3.88;2.97;;;;;;;12.44;62.35;98562.34;5085166;28;20247;-72
2022/05/30 00:31:47;;;;;;;3.10;2.03;;;;;;;12.46;62.47;98559.59;5085145;28;20105;-72
2022/05/30 00:34:14;;;;;;;4.63;2.53;;;;;;;12.48;62.25;98555.84;5085109;28;20064;-72
2022/05/30 00:36:41;;;;;;;4.63;2.60;;;;;;;12.49;61.76;98557.53;5085359;28;20185;-72
2022/05/30 00:39:09;;;;;;;3.72;2.38;;;;;;;12.45;62.00;98556.09;5085030;28;20057;-72
2022/05/30 00:41:36;;;;;;;3.05;1.88;;;;;;;11.59;62.16;98435.06;5085352;28;20346;-73
2022/05/30 00:44:05;;;;;;;3.20;1.85;;;;;;;12.42;62.13;98552.81;5085300;28;20255;-72
2022/05/30 00:46:32;;;;;;;3.28;1.65;;;;;;;12.41;61.78;98549.31;5085305;28;20297;-72
2022/05/30 00:49:02;;;;;;;3.13;2.00;;;;;;;12.37;61.94;98557.63;5085108;28;20102;-72
2022/05/30 00:51:35;;;;;;;2.78;1.50;;;;;;;12.31;62.59;98553.63;5085288;28;20113;-72
2022/05/30 00:54:04;;;;;;;3.22;1.60;;;;;;;12.33;62.04;98545.53;5085225;28;20086;-72
2022/05/30 00:56:35;;;;;;;2.90;1.73;;;;;;;12.35;62.05;98548.91;5084076;28;20052;-72
2022/05/30 00:59:04;;;;;;;2.55;1.60;;;;;;;12.29;62.01;98550.22;5085168;28;20224;-72
2022/05/30 01:01:33;;;;;;;3.33;1.95;;;;;;;11.91;62.59;98507.84;5085162;28;20048;-72
2022/05/30 01:06:51;;;;;;;3.15;2.20;;;;;;;12.23;62.25;98553.34;5085064;28;20083;-72
2022/05/30 01:09:23;;;;;;;4.07;2.35;;;;;;;11.95;62.61;98500.50;5085006;28;20061;-72
2022/05/30 01:11:56;;;;;;;3.55;2.25;;;;;;;12.22;62.18;98538.38;5085026;28;20060;-72
2022/05/30 01:14:27;;;;;;;4.05;2.53;;;;;;;12.24;62.29;98541.75;5084901;28;20036;-72
2022/05/30 01:16:55;;;;;;;4.57;2.72;;;;;;;11.42;62.49;98429.19;5085024;28;20065;-72
2022/05/30 01:19:49;;;;;;;3.45;1.83;;;;;;;12.13;64.03;98546.97;5084999;28;20113;-72
2022/05/30 01:22:51;;;;;;;2.85;1.65;;;;;;;12.15;63.79;98539.75;5087975;28;20110;-72
2022/05/30 01:25:35;;;;;;;2.65;1.60;;;;;;;12.15;63.66;98537.94;5088547;28;20056;-73
2022/05/30 01:28:10;;;;;;;3.13;1.60;;;;;;;12.15;63.11;98537.94;5088354;28;20052;-72
2022/05/30 01:30:40;;;;;;;3.45;1.75;;;;;;;12.07;63.88;98540.31;5088367;28;20060;-72
2022/05/30 01:33:08;;;;;;;2.80;1.67;;;;;;;12.11;62.96;98530.31;5088190;28;20363;-72
2022/05/30 01:35:35;;;;;;;2.78;1.52;;;;;;;12.09;63.03;98524.28;5088503;28;20124;-72
2022/05/30 01:38:02;;;;;;;2.53;1.48;;;;;;;12.08;62.80;98528.72;5088487;28;20052;-72
2022/05/30 01:40:30;;;;;;;2.83;1.65;;;;;;;12.13;62.64;98525.75;5088489;28;20064;-72
2022/05/30 01:42:57;;;;;;;2.58;1.58;;;;;;;12.11;62.69;98538.28;5088281;28;20072;-72
2022/05/30 01:45:25;;;;;;;2.75;1.80;;;;;;;12.16;62.92;98538.78;5088355;28;20056;-72
2022/05/30 01:47:54;;;;;;;2.22;1.52;;;;;;;12.16;63.12;98531.69;5088291;28;20308;-72
2022/05/30 01:50:23;;;;;;;2.30;1.40;;;;;;;10.56;62.89;98271.97;5088394;28;20052;-72
2022/05/30 01:52:50;;;;;;;2.58;1.77;;;;;;;11.66;62.56;98506.16;5087869;28;20374;-72
2022/05/30 01:55:17;;;;;;;2.05;1.50;;;;;;;12.13;63.21;98544.31;5088049;28;20052;-72
2022/05/30 01:57:44;;;;;;;2.47;1.60;;;;;;;12.11;62.96;98552.41;5088205;28;20052;-72
2022/05/30 02:00:13;;;;;;;4.93;2.08;;;;;;;12.05;62.90;98554.66;5088125;28;20059;-71
2022/05/30 02:02:40;;;;;;;3.75;1.88;;;;;;;12.03;62.97;98538.00;5087783;28;20378;-72
2022/05/30 02:05:10;;;;;;;2.65;1.60;;;;;;;12.04;63.23;98534.38;5088081;28;20109;-72
2022/05/30 02:07:37;;;;;;;3.05;1.88;;;;;;;12.03;63.10;98540.66;5087942;28;20056;-72
2022/05/30 02:10:05;;;;;;;3.10;2.17;;;;;;;11.24;62.84;98428.72;5087958;28;20064;-72
2022/05/30 02:12:33;;;;;;;2.30;1.50;;;;;;;11.97;63.71;98544.59;5087967;28;20182;-71
2022/05/30 02:15:00;;;;;;;2.40;1.50;;;;;;;11.91;63.23;98549.50;5087801;28;20075;-72
2022/05/30 02:17:26;;;;;;;2.47;1.50;;;;;;;11.89;63.60;98574.34;5087767;28;20190;-72
2022/05/30 02:19:54;;;;;;;2.80;1.70;;;;;;;11.80;63.77;98551.13;5087753;28;20239;-72
2022/05/30 02:22:24;;;;;;;2.60;1.77;;;;;;;11.87;63.59;98557.69;5087347;28;20060;-72
2022/05/30 02:24:51;;;;;;;2.47;1.70;;;;;;;11.86;63.09;98553.34;5087358;28;20065;-72
2022/05/30 02:27:19;;;;;;;2.35;1.77;;;;;;;11.90;63.10;98564.56;5087626;28;20098;-72
2022/05/30 02:29:46;;;;;;;2.28;1.75;;;;;;;10.10;62.70;98248.78;5087690;28;20044;-72
2022/05/30 02:32:14;;;;;;;2.25;1.30;;;;;;;11.92;62.82;98560.00;5086873;28;20270;-71
2022/05/30 02:37:27;;;;;;;2.10;1.20;;;;;;;11.77;63.19;98555.81;5087542;28;20251;-71
2022/05/30 02:39:54;;;;;;;3.03;1.60;;;;;;;11.80;63.36;98563.56;5087047;28;20074;-71
2022/05/30 02:42:21;;;;;;;1.90;1.30;;;;;;;11.75;63.05;98561.22;5087491;28;20305;-72
2022/05/30 02:44:49;;;;;;;2.00;1.48;;;;;;;11.73;63.23;98560.50;5087267;28;20239;-71
2022/05/30 02:47:17;;;;;;;1.88;1.20;;;;;;;10.62;63.38;98406.66;5086851;28;20057;-72
2022/05/30 02:49:44;;;;;;;2.20;1.50;;;;;;;11.36;63.42;98521.63;5086805;28;20053;-71
2022/05/30 02:52:12;;;;;;;2.80;1.67;;;;;;;11.56;63.72;98572.31;5087126;28;20101;-71
2022/05/30 02:54:40;;;;;;;2.53;1.40;;;;;;;11.55;64.04;98567.97;5086756;28;20144;-71
2022/05/30 02:57:08;;;;;;;2.08;1.30;;;;;;;11.57;63.67;98562.56;5086972;28;20056;-72
2022/05/30 02:59:35;;;;;;;2.30;1.63;;;;;;;11.59;63.17;98560.63;5086987;28;20223;-72
2022/05/30 03:02:04;;;;;;;3.58;1.58;;;;;;;11.59;63.35;98565.09;5086902;28;20320;-71
2022/05/30 03:04:31;;;;;;;2.30;1.65;;;;;;;11.46;64.21;98563.31;5086967;28;20056;-71
2022/05/30 03:06:58;;;;;;;2.47;1.60;;;;;;;11.39;64.36;98564.72;5086842;28;20052;-71
2022/05/30 03:09:25;;;;;;;2.67;1.55;;;;;;;11.34;64.56;98561.53;5086737;28;20118;-72
2022/05/30 03:11:54;;;;;;;3.55;1.60;;;;;;;11.36;64.28;98564.09;5086775;28;20098;-71
2022/05/30 03:14:21;;;;;;;2.22;1.30;;;;;;;11.36;64.09;98570.25;5086413;28;20057;-71
2022/05/30 03:16:48;;;;;;;3.95;1.60;;;;;;;11.34;64.21;98580.09;5086733;28;20052;-72
2022/05/30 03:19:15;;;;;;;2.40;1.35;;;;;;;11.30;64.32;98727.19;5086648;28;20318;-72
2022/05/30 03:21:43;;;;;;;2.25;1.40;;;;;;;11.24;64.42;98571.94;5086643;28;20354;-71
2022/05/30 03:24:10;;;;;;;2.78;1.90;;;;;;;11.19;65.00;98574.06;5086450;28;20060;-71
2022/05/30 03:26:37;;;;;;;2.15;1.45;;;;;;;11.15;65.09;98572.59;5086211;28;20052;-72
2022/05/30 03:29:06;;;;;;;2.15;1.60;;;;;;;10.93;64.70;98515.88;5086365;28;20057;-71
2022/05/30 03:31:33;;;;;;;2.28;1.70;;;;;;;11.17;64.70;98565.38;5085946;28;20106;-72
2022/05/30 03:34:00;;;;;;;2.30;1.33;;;;;;;11.17;64.44;98570.69;5086085;28;20054;-72
2022/05/30 03:36:27;;;;;;;3.13;1.83;;;;;;;11.20;64.35;98574.94;5086325;28;20113;-72
2022/05/30 03:38:55;;;;;;;2.17;1.48;;;;;;;10.91;64.44;98516.81;5086279;28;20326;-72
2022/05/30 03:41:22;;;;;;;2.30;1.52;;;;;;;11.14;64.91;98568.25;5086296;28;20110;-72
2022/05/30 03:43:49;;;;;;;2.38;1.63;;;;;;;11.16;64.55;98574.28;5085821;28;20040;-72
2022/05/30 03:46:18;;;;;;;3.55;2.03;;;;;;;11.09;65.11;98567.72;5085606;28;20300;-72
2022/05/30 03:48:45;;;;;;;3.83;1.52;;;;;;;11.15;64.45;98564.63;5086063;28;20330;-72
2022/05/30 03:51:14;;;;;;;2.67;1.58;;;;;;;11.20;64.41;98570.47;5085576;28;20106;-72
2022/05/30 03:53:42;;;;;;;2.40;1.50;;;;;;;11.21;64.53;98568.66;5085925;28;20060;-72
2022/05/30 03:56:11;;;;;;;3.90;2.50;;;;;;;11.19;64.59;98568.78;5085711;28;20378;-72
2022/05/30 03:58:38;;;;;;;2.63;1.65;;;;;;;11.16;64.46;98568.13;5085883;28;20053;-72
2022/05/30 04:01:08;;;;;;;2.60;1.67;;;;;;;11.22;64.16;98573.00;5085554;28;20087;-72
2022/05/30 04:03:37;;;;;;;3.55;1.70;;;;;;;11.18;64.59;98567.06;5085823;28;20153;-71
2022/05/30 04:06:04;;;;;;;3.13;1.60;;;;;;;10.84;64.87;98514.72;5085492;28;20057;-72
2022/05/30 04:08:32;;;;;;;2.47;1.58;;;;;;;11.19;64.21;98567.94;5085872;28;20056;-72
2022/05/30 04:10:59;;;;;;;3.17;1.98;;;;;;;11.18;64.35;98564.44;5085767;28;20056;-72
2022/05/30 04:13:27;;;;;;;2.83;1.48;;;;;;;10.11;64.08;98413.78;5085684;28;20056;-72
2022/05/30 04:15:54;;;;;;;3.38;1.75;;;;;;;11.18;64.17;98564.44;5085433;28;20131;-72
2022/05/30 04:18:21;;;;;;;2.40;1.50;;;;;;;11.14;64.46;98572.69;5085493;28;20370;-72
2022/05/30 04:20:50;;;;;;;3.25;1.90;;;;;;;11.13;64.69;98574.50;5085627;28;20052;-72
2022/05/30 04:23:17;;;;;;;2.30;1.42;;;;;;;11.22;63.92;98567.72;5085295;28;20174;-72
2022/05/30 04:25:44;;;;;;;3.63;2.17;;;;;;;11.17;64.27;98573.34;5085568;28;20259;-72
2022/05/30 04:28:11;;;;;;;3.88;2.53;;;;;;;11.18;64.04;98574.19;5085506;28;20232;-72
2022/05/30 04:30:39;;;;;;;3.22;2.10;;;;;;;11.17;64.19;98581.28;5085433;28;20057;-72
2022/05/30 04:33:06;;;;;;;4.10;2.20;;;;;;;11.06;64.51;98570.59;5085096;28;20271;-72
2022/05/30 04:35:33;;;;;;;5.05;2.35;;;;;;;11.07;64.53;98561.69;5085243;28;20056;-72
2022/05/30 04:38:02;;;;;;;2.65;1.42;;;;;;;11.16;64.55;98568.13;5085499;28;20239;-71
2022/05/30 04:40:29;;;;;;;3.00;1.67;;;;;;;10.89;64.22;98531.13;5085196;28;20098;-72
2022/05/30 04:42:57;;;;;;;6.55;3.05;;;;;;;10.87;64.63;98539.19;5085446;28;20066;-71
2022/05/30 04:45:24;;;;;;;3.90;1.92;;;;;;;11.20;64.23;98572.28;5085158;28;20106;-72
2022/05/30 04:47:51;;;;;;;2.97;1.70;;;;;;;10.98;64.04;98527.00;5085312;28;20060;-71
2022/05/30 04:50:19;;;;;;;2.47;1.42;;;;;;;11.32;63.71;98581.19;5085297;28;20079;-71
2022/05/30 04:52:47;;;;;;;2.65;1.60;;;;;;;10.65;63.54;98504.50;5085126;28;20060;-72
2022/05/30 04:55:18;;;;;;;3.80;1.90;;;;;;;11.31;64.06;98582.13;5084866;28;20109;-72
2022/05/30 04:57:47;;;;;;;2.55;1.60;;;;;;;11.28;63.69;98593.81;5089435;28;20117;-71
2022/05/30 05:00:16;;;;;;;2.15;1.40;;;;;;;11.29;63.77;98598.16;5089620;28;20098;-72
2022/05/30 05:02:44;;;;;;;3.30;1.95;;;;;;;11.13;63.52;98571.84;5088767;28;20060;-71
2022/05/30 05:05:12;;;;;;;2.42;1.60;;;;;;;11.45;63.14;98619.16;5089026;28;20056;-72
2022/05/30 05:07:41;;;;;;;5.07;1.85;;;;;;;11.44;63.50;98622.75;5088979;28;20052;-72
2022/05/30 05:10:34;;;;;;;4.10;2.22;;;;;;;11.45;64.23;98613.84;5087881;28;20102;-72
2022/05/30 05:13:02;;;;;;;2.60;1.50;;;;;;;11.47;63.29;98622.53;5088835;28;20056;-72
2022/05/30 05:15:29;;;;;;;2.63;1.70;;;;;;;11.50;63.07;98630.28;5089008;28;20259;-72
2022/05/30 05:17:56;;;;;;;2.22;1.40;;;;;;;11.51;63.05;98635.50;5089098;28;20347;-72
2022/05/30 05:20:24;;;;;;;2.80;1.50;;;;;;;11.47;63.29;98622.53;5089073;28;20354;-72
2022/05/30 05:22:51;;;;;;;2.20;1.50;;;;;;;11.46;63.37;98623.50;5089056;28;20110;-72
2022/05/30 05:25:18;;;;;;;2.70;1.50;;;;;;;11.52;63.22;98631.88;5088748;28;20118;-72
2022/05/30 05:27:49;;;;;;;3.38;1.77;;;;;;;11.54;63.81;98629.13;5088562;28;20320;-72
2022/05/30 05:30:16;;;;;;;2.80;1.40;;;;;;;11.59;63.38;98623.50;5088138;28;20235;-72
2022/05/30 05:32:43;;;;;;;2.42;1.40;;;;;;;11.64;63.20;98637.28;5088352;28;20121;-72
2022/05/30 05:35:11;;;;;;;3.65;1.60;;;;;;;11.63;63.11;98631.13;5088216;28;20106;-71
2022/05/30 05:37:38;;;;;;;3.22;1.73;;;;;;;11.62;63.30;98632.06;5088748;28;20263;-71
2022/05/30 05:40:08;;;;;;;4.93;1.80;;;;;;;11.62;63.29;98634.72;5088418;28;20056;-71
2022/05/30 05:42:35;;;;;;;3.20;1.40;;;;;;;11.63;62.91;98644.41;5088246;28;20102;-72
2022/05/30 05:45:04;;;;;;;2.50;1.63;;;;;;;11.68;62.87;98647.56;5088530;28;20110;-72
2022/05/30 05:47:32;;;;;;;3.60;1.63;;;;;;;11.66;62.86;98641.53;5088292;28;20102;-72
2022/05/30 05:49:59;;;;;;;3.55;1.90;;;;;;;11.68;63.06;98639.59;5087955;28;20117;-71
2022/05/30 05:52:28;;;;;;;4.25;1.85;;;;;;;11.43;62.73;98592.72;5088067;28;20358;-72
2022/05/30 05:54:56;;;;;;;4.43;2.30;;;;;;;11.74;62.35;98656.91;5088220;28;20083;-71
2022/05/30 05:57:25;;;;;;;2.70;2.13;;;;;;;11.68;62.65;98652.03;5087952;28;20110;-72
2022/05/30 05:59:52;;;;;;;6.10;2.05;;;;;;;11.69;62.54;98659.03;5088002;28;20049;-71
2022/05/30 06:02:22;;;;;;;3.20;1.80;;;;;;;11.72;62.42;98657.00;5088155;28;20066;-71
2022/05/30 06:04:51;;;;;;;2.92;2.25;;;;;;;11.73;62.38;98666.66;5088120;28;20071;-72
2022/05/30 06:07:19;;;;;;;3.53;1.98;;;;;;;10.71;62.03;98513.81;5087147;28;20324;-72
2022/05/30 06:09:47;;;;;;;3.50;2.05;;;;;;;11.78;62.16;98669.84;5087974;28;20052;-73
2022/05/30 06:12:15;;;;;;;3.00;1.80;;;;;;;11.78;62.17;98677.81;5088015;28;20114;-73
2022/05/30 06:14:42;;;;;;;3.28;1.92;;;;;;;11.77;62.13;98673.47;5087901;28;20056;-72
2022/05/30 06:17:09;;;;;;;3.10;1.90;;;;;;;11.78;62.05;98677.81;5087645;28;20061;-72
2022/05/30 06:19:38;;;;;;;3.28;2.30;;;;;;;11.79;61.87;98676.00;5087555;28;20110;-73
2022/05/30 06:22:05;;;;;;;3.08;2.20;;;;;;;11.78;61.90;98671.66;5087831;28;20317;-72
2022/05/30 06:24:33;;;;;;;4.07;2.28;;;;;;;11.80;61.92;98675.91;5087823;28;20114;-73
2022/05/30 06:27:00;;;;;;;2.75;1.77;;;;;;;11.84;61.88;98676.53;5088254;28;20056;-73
2022/05/30 06:29:27;;;;;;;4.40;2.67;;;;;;;11.91;61.82;98667.16;5087628;28;20064;-73
2022/05/30 06:31:54;;;;;;;3.10;2.15;;;;;;;11.37;61.57;98581.69;5087414;28;20129;-72
2022/05/30 06:34:22;;;;;;;3.25;2.20;;;;;;;11.97;61.19;98680.00;5087292;28;20052;-73
2022/05/30 06:36:50;;;;;;;3.45;2.60;;;;;;;11.76;61.39;98655.84;5088124;28;20061;-73
2022/05/30 06:39:18;;;;;;;2.70;2.03;;;;;;;12.05;61.11;98870.72;5087558;28;20181;-73
2022/05/30 06:41:45;;;;;;;3.80;2.28;;;;;;;12.17;60.87;98681.31;5087461;28;20102;-73
2022/05/30 06:44:12;;;;;;;3.63;2.33;;;;;;;12.29;60.47;98676.91;5087442;28;20102;-73
2022/05/30 06:46:39;;;;;;;4.00;2.33;;;;;;;12.07;60.36;98635.94;5087446;28;20087;-73
2022/05/30 06:49:07;;;;;;;2.97;2.20;;;;;;;12.44;60.18;98691.72;5087354;28;20097;-73
2022/05/30 06:51:36;;;;;;;3.25;2.08;;;;;;;12.35;59.39;98672.00;5086036;28;20060;-72
2022/05/30 06:54:06;;;;;;;3.35;2.53;;;;;;;12.72;58.93;98675.44;5087192;28;20060;-72
2022/05/30 06:56:35;;;;;;;5.90;2.50;;;;;;;11.78;58.60;98489.34;5087162;28;20074;-73
2022/05/30 06:59:01;;;;;;;3.10;1.95;;;;;;;12.97;58.67;98663.81;5086987;28;20098;-72
2022/05/30 07:01:31;;;;;;;6.30;2.30;;;;;;;13.18;58.44;98666.63;5086985;28;20056;-73
2022/05/30 07:03:58;;;;;;;3.53;2.05;;;;;;;13.40;57.80;98687.13;5086614;28;20098;-72
2022/05/30 07:06:28;;;;;;;2.80;2.08;;;;;;;13.29;57.36;98608.13;5086935;28;20049;-73
2022/05/30 07:08:56;;;;;;;3.50;2.33;;;;;;;12.72;56.83;98504.44;5086580;28;20056;-72
2022/05/30 07:11:26;;;;;;;3.42;2.20;;;;;;;12.82;56.40;98502.75;5086344;28;20114;-73
2022/05/30 07:13:53;;;;;;;4.07;2.95;;;;;;;14.07;56.29;98652.53;5086475;28;20111;-73
2022/05/30 07:16:23;;;;;;;4.28;2.88;;;;;;;14.25;55.83;98666.19;5086760;28;20118;-73
2022/05/30 07:18:51;;;;;;;5.22;2.38;;;;;;;14.40;55.35;98646.28;5086192;28;20056;-73
2022/05/30 07:21:18;;;;;;;3.88;2.75;;;;;;;14.59;55.11;98646.50;5086198;28;20110;-73
2022/05/30 07:23:45;;;;;;;5.05;2.78;;;;;;;14.51;54.18;98595.59;5086669;28;20056;-73
2022/05/30 07:26:16;;;;;;;3.60;2.47;;;;;;;14.86;53.19;98643.38;5086544;28;20255;-73
2022/05/30 07:28:45;;;;;;;4.18;2.38;;;;;;;14.97;53.20;98653.16;5086319;28;20258;-73
2022/05/30 07:31:14;;;;;;;3.10;2.03;;;;;;;15.19;53.13;98644.19;5086185;28;20040;-73
2022/05/30 07:33:44;;;;;;;6.20;2.20;;;;;;;15.43;52.70;98641.22;5084974;28;20060;-73
2022/05/30 07:36:14;;;;;;;5.18;3.15;;;;;;;15.57;52.31;98639.06;5086525;28;20110;-73
2022/05/30 07:38:42;;;;;;;3.67;2.17;;;;;;;15.67;51.80;98639.13;5086246;28;20114;-73
2022/05/30 07:41:09;;;;;;;4.18;2.15;;;;;;;15.87;50.61;98630.22;5085997;28;20060;-73
2022/05/30 07:43:37;;;;;;;3.47;2.63;;;;;;;15.73;50.78;98570.97;5085931;28;20056;-73
2022/05/30 07:46:08;;;;;;;3.03;2.03;;;;;;;16.38;50.13;98625.69;5085840;28;20098;-73
2022/05/30 07:48:36;;;;;;;4.03;2.40;;;;;;;16.57;49.68;98625.72;5085992;28;20098;-73
2022/05/30 07:51:05;;;;;;;4.45;2.45;;;;;;;16.07;48.99;98516.19;5084890;28;20117;-73
2022/05/30 07:53:33;;;;;;;3.35;1.92;;;;;;;16.83;48.68;98629.53;5085562;28;20182;-72
2022/05/30 07:56:01;;;;;;;6.28;2.28;;;;;;;16.86;48.27;98620.38;5085808;28;20186;-73
2022/05/30 07:58:28;;;;;;;3.08;1.65;;;;;;;17.01;47.74;98624.31;5085879;28;20090;-73
2022/05/30 08:00:55;;;;;;;3.55;1.88;;;;;;;17.09;48.00;98608.38;5084992;28;20056;-73
2022/05/30 08:03:25;;;;;;;3.38;1.83;;;;;;;17.16;46.83;98616.69;5085836;28;20064;-73
2022/05/30 08:06:02;;;;;;;3.00;1.80;;;;;;;17.05;47.23;98627.56;5085894;28;20316;-73
2022/05/30 08:08:29;;;;;;;2.92;1.70;;;;;;;17.07;46.84;98628.25;5085725;28;20086;-73
2022/05/30 08:10:56;;;;;;;3.05;1.80;;;;;;;17.15;45.68;98631.06;5085393;28;20106;-73
2022/05/30 08:13:24;;;;;;;3.45;1.77;;;;;;;16.89;45.52;98588.84;5085330;28;20117;-73
2022/05/30 08:15:51;;;;;;;3.70;2.25;;;;;;;17.26;47.17;98625.56;5085880;28;20343;-73
2022/05/30 08:18:20;;;;;;;3.10;1.83;;;;;;;17.15;46.39;98591.75;5068064;28;20060;-73
2022/05/30 08:20:49;;;;;;;2.50;1.60;;;;;;;16.55;45.76;98531.38;5085768;28;20094;-73
2022/05/30 08:23:17;;;;;;;4.03;2.13;;;;;;;17.22;47.27;98627.69;5085644;28;20060;-73
2022/05/30 08:25:45;;;;;;;3.20;2.10;;;;;;;17.12;47.86;98629.50;5085390;28;20056;-73
2022/05/30 08:28:13;;;;;;;2.70;1.83;;;;;;;17.00;47.30;98630.66;5085557;28;20312;-73
2022/05/30 08:30:41;;;;;;;4.13;2.22;;;;;;;17.00;47.41;98633.34;5084994;28;20056;-73
2022/05/30 08:33:10;;;;;;;3.63;2.50;;;;;;;17.11;46.70;98624.31;5085032;28;20308;-73
2022/05/30 08:35:38;;;;;;;3.13;1.70;;;;;;;17.08;46.61;98617.41;5085266;28;20056;-73
2022/05/30 08:38:08;;;;;;;3.50;2.45;;;;;;;17.13;46.89;98627.69;5085343;28;20066;-73
2022/05/30 08:43:37;;;;;;;3.55;1.85;;;;;;;17.49;46.30;98624.25;5043955;28;20107;-73
2022/05/30 08:46:09;;;;;;;3.15;1.90;;;;;;;17.69;44.18;98625.06;5076194;28;20060;-73
2022/05/30 08:48:46;;;;;;;3.45;2.20;;;;;;;17.72;43.92;98632.78;5085343;28;20259;-73
2022/05/30 08:51:41;;;;;;;4.43;2.10;;;;;;;18.00;43.08;98636.34;5085017;28;20052;-73
2022/05/30 08:54:32;;;;;;;3.72;2.95;;;;;;;17.97;41.54;98633.94;5085125;28;20044;-73
2022/05/30 08:57:03;;;;;;;4.50;2.42;;;;;;;16.60;43.83;98419.44;5085211;28;20060;-73
2022/05/30 08:59:44;;;;;;;4.25;2.40;;;;;;;17.95;42.70;98638.63;5084990;28;20194;-73
2022/05/30 09:02:17;;;;;;;2.75;1.60;;;;;;;17.77;43.18;98637.72;5084986;28;20251;-72
2022/05/30 09:04:49;;;;;;;2.97;1.60;;;;;;;17.66;43.71;98644.09;5085093;28;20083;-73
2022/05/30 09:07:18;;;;;;;3.13;1.77;;;;;;;17.54;45.51;98629.16;5084570;28;20186;-73
2022/05/30 09:09:52;;;;;;;3.10;1.70;;;;;;;17.44;43.91;98636.38;5084910;28;20102;-73
2022/05/30 09:12:23;;;;;;;;;;;;;;;17.54;42.72;98630.00;5085464;28;20060;-73
2022/05/30 09:14:55;;;;;;;5.55;1.85;;;;;;;17.85;45.34;98644.03;5085071;28;19920;-73
2022/05/30 09:17:28;;;;;;;14.20;2.72;;;;;;;18.23;42.24;98632.25;5084972;28;20052;-73
2022/05/30 09:19:58;;;;;;;3.83;2.08;;;;;;;18.48;41.52;98632.50;5084693;28;20056;-73
2022/05/30 09:22:25;;;;;;;3.85;2.30;;;;;;;18.61;42.25;98637.53;5084939;28;20053;-73
2022/05/30 09:27:39;;;;;;;2.97;1.95;;;;;;;18.65;42.70;98631.72;5084879;28;20094;-73
2022/05/30 09:30:10;;;;;;;2.70;1.65;;;;;;;18.62;40.66;98626.66;5084838;28;20064;-73
2022/05/30 09:32:45;;;;;;;2.90;1.63;;;;;;;18.63;38.32;98631.03;5084403;28;20125;-73
2022/05/30 09:35:23;;;;;;;3.63;2.35;;;;;;;18.69;38.44;98618.84;5084691;28;20066;-73
2022/05/30 09:38:09;;;;;;;3.20;1.70;;;;;;;18.77;37.12;98624.28;5084684;28;20296;-73
2022/05/30 09:40:41;;;;;;;2.20;1.40;;;;;;;18.75;38.26;98616.38;5085049;28;20141;-73
2022/05/30 09:43:12;;;;;;;3.03;1.73;;;;;;;18.75;40.75;98621.75;5085945;28;20048;-73
2022/05/30 09:45:39;;;;;;;2.70;1.58;;;;;;;18.92;40.70;98606.63;5087196;28;20083;-73
2022/05/30 09:48:11;;;;;;;4.35;2.65;;;;;;;19.01;38.76;98621.81;5088215;28;20315;-73
2022/05/30 09:50:44;;;;;;;3.35;2.10;;;;;;;19.06;37.38;98613.28;5087986;28;20105;-73
2022/05/30 09:53:11;;;;;;;1.98;1.25;;;;;;;19.13;39.95;98608.97;5087887;28;20048;-73
2022/05/30 09:55:48;;;;;;;3.92;1.83;;;;;;;19.22;36.02;98614.25;5088281;28;20057;-73
2022/05/30 09:58:16;;;;;;;5.70;1.92;;;;;;;19.21;38.46;98612.56;5088229;28;20296;-73
2022/05/30 10:00:50;;;;;;;3.70;1.73;;;;;;;19.20;36.83;98615.41;5087869;28;20113;-73
2022/05/30 10:03:30;;;;;;;3.55;1.98;;;;;;;19.05;35.11;98607.06;5088070;28;20109;-73
2022/05/30 10:06:13;;;;;;;3.25;1.65;;;;;;;18.12;34.88;98447.44;5088316;28;20059;-73
2022/05/30 10:08:40;;;;;;;3.17;1.88;;;;;;;18.76;38.61;98560.84;5088072;28;20098;-73
2022/05/30 10:11:09;;;;;;;3.97;1.48;;;;;;;19.05;37.84;98598.16;5087691;28;20060;-73
2022/05/30 10:13:39;;;;;;;3.00;1.50;;;;;;;19.11;38.43;98598.38;5087764;28;20056;-73
2022/05/30 10:16:08;;;;;;;3.35;1.42;;;;;;;19.18;37.38;98601.28;5087679;28;20106;-73
2022/05/30 10:18:41;;;;;;;3.53;1.98;;;;;;;19.27;36.82;98591.44;5087466;28;20056;-73
2022/05/30 10:21:25;;;;;;;3.55;1.70;;;;;;;19.54;36.35;98586.75;5086876;28;20110;-73
2022/05/30 10:30:13;;;;;;;4.90;2.10;;;;;;;18.74;37.79;98444.75;5087424;28;20232;-73
2022/05/30 10:32:53;;;;;;;4.22;2.45;;;;;;;19.76;36.88;98622.16;5086891;28;20064;-73
2022/05/30 10:35:25;;;;;;;3.45;2.20;;;;;;;19.73;37.25;98591.06;5087038;28;20110;-73
2022/05/30 10:38:20;;;;;;;3.30;2.03;;;;;;;19.95;36.43;98594.19;5087353;28;20057;-73
2022/05/30 10:41:01;;;;;;;3.70;2.35;;;;;;;19.91;36.25;98593.69;5087038;28;20101;-74
2022/05/30 10:43:42;;;;;;;3.50;2.20;;;;;;;19.88;35.72;98591.31;5087283;28;20358;-73
2022/05/30 10:46:13;;;;;;;3.25;1.98;;;;;;;18.65;38.09;98417.03;5087379;28;20056;-73
2022/05/30 10:48:44;;;;;;;3.53;1.85;;;;;;;20.01;37.99;98578.25;5086804;28;20056;-73
2022/05/30 10:51:18;;;;;;;2.67;1.98;;;;;;;20.18;34.72;98587.22;5086976;28;20259;-74
2022/05/30 10:53:53;;;;;;;3.77;1.93;;;;;;;20.18;36.26;98580.00;5086183;28;20064;-74
2022/05/30 10:56:24;;;;;;;2.30;1.60;;;;;;;20.03;37.18;98549.34;5086554;28;20056;-74
2022/05/30 10:59:00;;;;;;;3.83;2.30;;;;;;;20.16;35.52;98544.34;5087056;28;20063;-72
2022/05/30 11:01:40;;;;;;;8.07;4.97;;;;;;;20.54;35.67;98577.06;5086627;28;20063;-71
2022/05/30 11:04:16;;;;;;;4.88;2.67;;;;;;;20.58;36.47;98577.56;5086857;28;20056;-72
2022/05/30 11:06:48;;;;;;;4.38;2.90;;;;;;;20.18;35.65;98482.31;5086685;28;20109;-72
2022/05/30 11:09:24;;;;;;;4.72;2.90;;;;;;;20.11;34.33;98452.53;5086709;28;20246;-73
2022/05/30 11:11:59;;;;;;;4.57;2.42;;;;;;;20.14;34.95;98462.13;5086401;28;20060;-73
2022/05/30 11:14:38;;;;;;;4.88;2.03;;;;;;;20.87;33.73;98575.22;5086745;28;20082;-73
2022/05/30 11:17:12;;;;;;;5.85;2.55;;;;;;;19.86;35.00;98456.19;5086368;28;20201;-73
2022/05/30 11:19:49;;;;;;;;;;;;;;;20.16;34.14;98573.94;5087201;28;20061;-73
2022/05/30 11:22:21;;;;;;;3.78;2.22;;;;;;;19.79;36.39;98573.44;5086525;28;19966;-73
2022/05/30 11:24:53;;;;;;;5.65;2.58;;;;;;;19.78;37.45;98577.97;5086519;28;20056;-73
2022/05/30 11:27:34;;;;;;;4.05;2.15;;;;;;;19.72;35.77;98584.00;5086389;28;20056;-72
2022/05/30 11:30:34;;;;;;;4.55;2.90;;;;;;;19.52;35.52;98585.22;5086351;28;20064;-72
2022/05/30 11:33:30;;;;;;;2.97;2.10;;;;;;;19.34;34.92;98579.91;5085831;28;20121;-73
2022/05/30 11:36:09;;;;;;;3.40;2.33;;;;;;;19.39;35.81;98574.91;5085755;28;20110;-73
2022/05/30 11:38:56;;;;;;;5.70;2.20;;;;;;;19.39;35.29;98584.81;5086313;28;20052;-72
2022/05/30 11:41:35;;;;;;;3.60;2.08;;;;;;;19.40;36.07;98581.13;5086012;28;20358;-73
2022/05/30 11:44:23;;;;;;;7.40;2.35;;;;;;;19.52;35.29;98575.31;5086011;28;20087;-72
2022/05/30 11:47:03;;;;;;;2.80;1.90;;;;;;;19.68;35.66;98566.50;5069628;28;20204;-73
2022/05/30 11:49:35;;;;;;;4.72;2.38;;;;;;;19.76;35.63;98577.28;5085708;28;20056;-72
2022/05/30 11:52:16;;;;;;;3.53;2.28;;;;;;;19.50;35.30;98576.50;5085683;28;20110;-72
2022/05/30 11:55:02;;;;;;;7.32;2.67;;;;;;;19.18;35.33;98580.63;5085942;28;20316;-74
2022/05/30 11:57:36;;;;;;;5.57;2.33;;;;;;;18.98;36.01;98587.22;5085798;28;20315;-74
2022/05/30 12:00:13;;;;;;;3.08;2.15;;;;;;;18.76;36.39;98591.22;5085737;28;20251;-73
2022/05/30 12:03:25;;;;;;;3.63;2.42;;;;;;;18.63;36.26;98595.28;5085935;28;20045;-74
2022/05/30 12:06:40;;;;;;;3.53;2.33;;;;;;;18.42;36.44;98598.25;5084771;28;20117;-74
2022/05/30 12:09:45;;;;;;;5.05;2.30;;;;;;;18.48;36.19;98586.91;5066873;28;20268;-74